Nouvelle, Canada
Current Conditions -  °F | °C
As of 5:00 PM on Friday 24 Oct 2014 (Local Time) from CZBF Reporting Station
Light Rain Light Rain  
Wind Chill: 41°   Ceiling: 2500
Heat Index: 41°   Visibility: 5mi
Dew Point: 39°   Wind: 2mph
Humidity: 93%   Direction: NA
Pressure: 29.7"   Gusts: NA
Location:  48.13°N, 66.3°W
Report Text: CZBF 242100Z VRB02KT 5SM -RA BR OVC025 05/04 A2970 RMK SC8 SLP058
Loading
Personal Weather Stations






























Interactive Weather Map
Tropical Storm Tracking
New forecast layout! Learn more

10-Day Weather Forecast

Advertisements
Track Severe Weather on mobile